createdAt,value
2023-12-19T00:00:54.219Z,45.59
2023-12-19T00:01:54.216Z,45.54
2023-12-19T00:02:54.342Z,45.51
2023-12-19T00:03:54.473Z,45.49
2023-12-19T00:04:54.479Z,45.59
2023-12-19T00:05:54.631Z,45.57
2023-12-19T00:06:54.683Z,45.57
2023-12-19T00:07:54.747Z,45.60
2023-12-19T00:08:54.810Z,45.70
2023-12-19T00:09:54.984Z,45.61
2023-12-19T00:10:55.000Z,45.62
2023-12-19T00:11:55.058Z,45.54
2023-12-19T00:12:55.796Z,45.59
2023-12-19T00:13:55.331Z,45.69
2023-12-19T00:14:55.337Z,45.65
2023-12-19T00:15:55.449Z,45.65
2023-12-19T00:16:55.502Z,45.70
2023-12-19T00:17:55.670Z,45.62
2023-12-19T00:18:55.756Z,45.62
2023-12-19T00:19:55.922Z,45.63
2023-12-19T00:20:55.849Z,45.69
2023-12-19T00:21:55.973Z,45.63
2023-12-19T00:22:56.008Z,45.54
2023-12-19T00:23:56.090Z,45.54
2023-12-19T00:24:56.302Z,45.51
2023-12-19T00:25:56.235Z,45.43
2023-12-19T00:26:56.307Z,45.51
2023-12-19T00:27:56.369Z,45.49
2023-12-19T00:28:56.461Z,45.53
2023-12-19T00:29:56.561Z,45.53
2023-12-19T00:30:56.735Z,45.54
2023-12-19T00:31:56.711Z,45.57
2023-12-19T00:32:56.885Z,45.56
2023-12-19T00:33:56.976Z,45.54
2023-12-19T00:34:57.100Z,45.56
2023-12-19T00:35:57.043Z,45.52
2023-12-19T00:36:57.117Z,45.48
2023-12-19T00:37:57.134Z,45.47
2023-12-19T00:38:57.215Z,45.48
2023-12-19T00:39:57.365Z,45.49
2023-12-19T00:40:57.383Z,45.47
2023-12-19T00:41:57.584Z,45.48
2023-12-19T00:42:57.571Z,45.53
2023-12-19T00:43:57.623Z,45.55
2023-12-19T00:44:57.689Z,45.59
2023-12-19T00:45:57.834Z,45.69
2023-12-19T00:46:57.971Z,45.59
2023-12-19T00:47:57.949Z,45.59
2023-12-19T00:48:58.044Z,45.61
2023-12-19T00:49:58.244Z,45.55
2023-12-19T00:50:58.188Z,45.61
2023-12-19T00:51:58.597Z,45.57
2023-12-19T00:52:58.340Z,45.63
2023-12-19T00:53:58.404Z,45.54
2023-12-19T00:54:58.588Z,45.52
2023-12-19T00:55:58.564Z,45.54
2023-12-19T00:56:58.644Z,45.53
2023-12-19T00:57:58.933Z,45.48
2023-12-19T00:58:58.820Z,45.56
2023-12-19T00:59:58.894Z,45.50
2023-12-19T01:00:58.986Z,45.53
2023-12-19T01:01:59.039Z,45.51
2023-12-19T01:02:59.159Z,45.51
2023-12-19T01:03:59.257Z,45.54
2023-12-19T01:04:59.554Z,45.53
2023-12-19T01:05:59.509Z,45.54
2023-12-19T01:06:59.508Z,45.50
2023-12-19T01:07:59.539Z,45.48
2023-12-19T01:08:59.681Z,45.55
2023-12-19T01:09:59.700Z,45.53
2023-12-19T01:10:59.790Z,45.52
2023-12-19T01:11:59.857Z,45.54
2023-12-19T01:13:00.040Z,45.53
2023-12-19T01:14:00.051Z,45.46
2023-12-19T01:15:00.167Z,45.49
2023-12-19T01:16:00.327Z,45.47
2023-12-19T01:17:00.304Z,45.41
2023-12-19T01:18:00.398Z,45.41
2023-12-19T01:19:00.518Z,45.39
2023-12-19T01:20:00.664Z,45.41
2023-12-19T01:21:00.643Z,45.43
2023-12-19T01:22:00.735Z,45.45
2023-12-19T01:23:00.790Z,45.42
2023-12-19T01:24:00.858Z,45.45
2023-12-19T01:25:01.086Z,45.50
2023-12-19T01:26:04.516Z,45.42
2023-12-19T01:27:01.089Z,45.42
2023-12-19T01:28:10.818Z,45.43
2023-12-19T01:29:01.266Z,45.47
2023-12-19T01:30:01.335Z,45.49
2023-12-19T01:31:01.492Z,45.47
2023-12-19T01:32:01.491Z,45.45
2023-12-19T01:33:01.646Z,45.42
2023-12-19T01:34:01.784Z,45.40
2023-12-19T01:35:01.784Z,45.40
2023-12-19T01:36:03.308Z,45.44
2023-12-19T01:37:01.982Z,45.47
2023-12-19T01:38:02.046Z,45.40
2023-12-19T01:39:02.115Z,45.40
2023-12-19T01:40:02.281Z,45.38
2023-12-19T01:41:02.258Z,45.36
2023-12-19T01:42:02.334Z,45.37
2023-12-19T01:43:02.524Z,45.47
2023-12-19T01:44:02.492Z,45.47
2023-12-19T01:45:02.569Z,45.47
2023-12-19T01:46:02.719Z,45.58
2023-12-19T01:47:02.734Z,45.56
2023-12-19T01:48:02.826Z,45.57
2023-12-19T01:49:03.001Z,45.51
2023-12-19T01:50:03.063Z,45.52
2023-12-19T01:51:03.092Z,45.45
2023-12-19T01:52:03.261Z,45.42
2023-12-19T01:53:03.243Z,45.55
2023-12-19T01:54:03.322Z,45.67
2023-12-19T01:55:03.482Z,45.59
2023-12-19T01:56:03.469Z,45.59
2023-12-19T01:57:03.586Z,45.61
2023-12-19T01:58:03.750Z,45.63
2023-12-19T01:59:03.734Z,45.61
2023-12-19T02:00:03.812Z,45.63
2023-12-19T02:01:04.012Z,45.76
2023-12-19T02:02:03.969Z,45.79
2023-12-19T02:03:04.121Z,45.74
2023-12-19T02:04:04.286Z,45.62
2023-12-19T02:05:04.294Z,45.55
2023-12-19T02:06:04.303Z,45.50
2023-12-19T02:07:04.378Z,45.56
2023-12-19T02:08:04.417Z,45.52
2023-12-19T02:09:04.500Z,45.55
2023-12-19T02:10:04.628Z,45.42
2023-12-19T02:11:04.672Z,45.41
2023-12-19T02:12:04.738Z,45.39
2023-12-19T02:13:05.103Z,45.39
2023-12-19T02:14:05.011Z,45.39
2023-12-19T02:15:05.065Z,45.40
2023-12-19T02:16:05.138Z,45.38
2023-12-19T02:17:05.174Z,45.41
2023-12-19T02:18:05.351Z,45.44
2023-12-19T02:19:05.581Z,45.43
2023-12-19T02:20:05.414Z,45.42
2023-12-19T02:21:05.498Z,45.45
2023-12-19T02:22:05.589Z,45.43
2023-12-19T02:23:05.644Z,45.43
2023-12-19T02:24:05.736Z,45.48
2023-12-19T02:25:05.935Z,45.50
2023-12-19T02:26:05.923Z,45.42
2023-12-19T02:27:05.969Z,45.47
2023-12-19T02:28:06.122Z,45.50
2023-12-19T02:29:06.130Z,45.58
2023-12-19T02:30:06.294Z,45.52
2023-12-19T02:31:06.399Z,45.44
2023-12-19T02:32:06.351Z,45.42
2023-12-19T02:33:06.478Z,45.45
2023-12-19T02:34:06.601Z,45.42
2023-12-19T02:35:06.608Z,45.33
2023-12-19T02:36:06.683Z,45.40
2023-12-19T02:37:06.813Z,45.45
2023-12-19T02:38:06.870Z,45.43
2023-12-19T02:39:06.921Z,45.40
2023-12-19T02:40:07.166Z,45.45
2023-12-19T02:41:07.118Z,45.47
2023-12-19T02:42:07.186Z,45.52
2023-12-19T02:43:07.334Z,45.50
2023-12-19T02:44:07.341Z,45.45
2023-12-19T02:45:07.438Z,45.42
2023-12-19T02:46:07.532Z,45.40
2023-12-19T02:47:07.596Z,45.47
2023-12-19T02:48:07.728Z,45.51
2023-12-19T02:49:07.817Z,45.53
2023-12-19T02:50:07.836Z,45.59
2023-12-19T02:51:07.908Z,45.55
2023-12-19T02:52:08.035Z,45.58
2023-12-19T02:53:08.056Z,45.60
2023-12-19T02:54:08.136Z,45.50
2023-12-19T02:55:08.239Z,45.60
2023-12-19T02:56:08.314Z,45.72
2023-12-19T02:57:08.370Z,45.63
2023-12-19T02:58:08.457Z,45.71
2023-12-19T02:59:08.514Z,45.63
2023-12-19T03:00:08.571Z,45.51
2023-12-19T03:01:08.723Z,45.45
2023-12-19T03:02:08.740Z,45.43
2023-12-19T03:03:08.869Z,45.48
2023-12-19T03:04:08.970Z,45.43
2023-12-19T03:05:09.126Z,45.37
2023-12-19T03:06:09.159Z,45.43
2023-12-19T03:07:09.201Z,45.42
2023-12-19T03:08:09.370Z,45.38
2023-12-19T03:09:09.360Z,45.45
2023-12-19T03:10:09.988Z,45.47
2023-12-19T03:11:09.554Z,45.39
2023-12-19T03:12:09.633Z,45.43
2023-12-19T03:13:09.747Z,45.50
2023-12-19T03:14:09.771Z,45.40
2023-12-19T03:15:09.842Z,45.43
2023-12-19T03:16:09.948Z,45.52
2023-12-19T03:17:09.990Z,45.50
2023-12-19T03:18:10.141Z,45.44
2023-12-19T03:19:10.250Z,45.60
2023-12-19T03:20:10.216Z,45.51
2023-12-19T03:21:10.308Z,45.53
2023-12-19T03:22:10.502Z,45.55
2023-12-19T03:23:10.467Z,45.50
2023-12-19T03:24:10.541Z,45.63
2023-12-19T03:25:10.657Z,45.57
2023-12-19T03:26:10.726Z,45.55
2023-12-19T03:27:10.804Z,45.50
2023-12-19T03:28:10.887Z,45.50
2023-12-19T03:29:10.963Z,45.42
2023-12-19T03:30:11.084Z,45.43
2023-12-19T03:31:11.159Z,45.52
2023-12-19T03:32:11.229Z,45.49
2023-12-19T03:33:11.331Z,45.37
2023-12-19T03:34:11.481Z,45.40
2023-12-19T03:35:11.472Z,45.37
2023-12-19T03:36:11.634Z,45.40
2023-12-19T03:37:11.643Z,45.42
2023-12-19T03:38:11.691Z,45.49
2023-12-19T03:39:11.767Z,45.48
2023-12-19T03:40:11.839Z,45.41
2023-12-19T03:41:11.936Z,45.40
2023-12-19T03:42:13.342Z,45.50
2023-12-19T03:43:12.181Z,45.58
2023-12-19T03:44:12.172Z,45.62
2023-12-19T03:45:12.236Z,45.44
2023-12-19T03:46:12.416Z,45.46
2023-12-19T03:47:12.422Z,45.44
2023-12-19T03:48:12.666Z,45.45
2023-12-19T03:49:12.652Z,45.39
2023-12-19T03:50:12.705Z,45.41
2023-12-19T03:51:12.783Z,45.42
2023-12-19T03:52:12.969Z,45.42
2023-12-19T03:53:12.951Z,45.37
2023-12-19T03:54:13.016Z,45.40
2023-12-19T03:55:13.087Z,45.43
2023-12-19T03:56:13.171Z,45.48
2023-12-19T03:57:13.269Z,45.44
2023-12-19T03:58:13.329Z,45.50
2023-12-19T03:59:13.414Z,45.54
2023-12-19T04:00:13.462Z,45.55
2023-12-19T04:01:13.610Z,45.56
2023-12-19T04:02:13.620Z,45.57
2023-12-19T04:03:13.696Z,45.59
2023-12-19T04:04:13.914Z,45.63
2023-12-19T04:05:13.888Z,45.43
2023-12-19T04:06:13.979Z,45.40
2023-12-19T04:07:14.028Z,45.43
2023-12-19T04:08:14.208Z,45.46
2023-12-19T04:09:14.213Z,45.39
2023-12-19T04:10:14.270Z,45.41
2023-12-19T04:11:14.349Z,45.49
2023-12-19T04:12:14.426Z,45.47
2023-12-19T04:13:14.543Z,45.52
2023-12-19T04:14:14.566Z,45.45
2023-12-19T04:15:14.681Z,45.51
2023-12-19T04:16:14.763Z,45.55
2023-12-19T04:17:16.325Z,45.43
2023-12-19T04:18:14.954Z,45.39
2023-12-19T04:19:15.111Z,45.50
2023-12-19T04:20:15.082Z,45.40
2023-12-19T04:21:15.212Z,45.39
2023-12-19T04:22:15.298Z,45.37
2023-12-19T04:23:15.326Z,45.45
2023-12-19T04:24:15.396Z,45.44
2023-12-19T04:25:15.582Z,45.40
2023-12-19T04:26:15.571Z,45.45
2023-12-19T04:27:15.664Z,45.46
2023-12-19T04:28:15.719Z,45.43
2023-12-19T04:29:15.794Z,45.46
2023-12-19T04:30:15.913Z,45.43
2023-12-19T04:31:16.225Z,45.36
2023-12-19T04:32:16.077Z,45.59
2023-12-19T04:33:16.244Z,45.55
2023-12-19T04:34:16.317Z,45.50
2023-12-19T04:35:16.284Z,45.53
2023-12-19T04:36:16.371Z,45.60
2023-12-19T04:37:16.446Z,45.55
2023-12-19T04:38:16.527Z,45.60
2023-12-19T04:39:16.597Z,45.49
2023-12-19T04:40:16.693Z,45.51
2023-12-19T04:41:16.786Z,45.52
2023-12-19T04:42:16.856Z,45.53
2023-12-19T04:43:16.991Z,45.47
2023-12-19T04:44:17.007Z,45.55
2023-12-19T04:45:17.106Z,45.48
2023-12-19T04:46:17.175Z,45.39
2023-12-19T04:47:17.252Z,45.45
2023-12-19T04:48:17.354Z,45.41
2023-12-19T04:49:17.508Z,45.45
2023-12-19T04:50:17.502Z,45.44
2023-12-19T04:51:17.569Z,45.44
2023-12-19T04:52:17.643Z,45.47
2023-12-19T04:53:17.713Z,45.43
2023-12-19T04:54:17.808Z,45.55
2023-12-19T04:55:17.913Z,45.52
2023-12-19T04:56:18.333Z,45.47
2023-12-19T04:57:18.011Z,45.48
2023-12-19T04:58:18.092Z,45.41
2023-12-19T04:59:18.195Z,45.48
2023-12-19T05:00:18.248Z,45.40
2023-12-19T05:01:18.498Z,45.36
2023-12-19T05:02:18.422Z,45.44
2023-12-19T05:03:18.503Z,45.39
2023-12-19T05:04:18.661Z,45.50
2023-12-19T05:05:18.668Z,45.51
2023-12-19T05:06:19.448Z,45.50
2023-12-19T05:07:18.814Z,45.46
2023-12-19T05:08:18.904Z,45.48
2023-12-19T05:09:18.965Z,45.52
2023-12-19T05:10:19.071Z,45.48
2023-12-19T05:11:19.151Z,45.55
2023-12-19T05:12:19.213Z,45.66
2023-12-19T05:13:19.299Z,45.67
2023-12-19T05:14:19.383Z,45.48
2023-12-19T05:15:19.474Z,45.43
2023-12-19T05:16:19.577Z,45.35
2023-12-19T05:17:19.711Z,45.38
2023-12-19T05:18:19.894Z,45.33
2023-12-19T05:19:19.823Z,45.36
2023-12-19T05:20:19.959Z,45.36
2023-12-19T05:21:19.958Z,45.44
2023-12-19T05:22:20.042Z,45.53
2023-12-19T05:23:20.110Z,45.42
2023-12-19T05:24:20.191Z,45.40
2023-12-19T05:25:20.244Z,45.43
2023-12-19T05:26:20.378Z,45.44
2023-12-19T05:27:20.411Z,45.46
2023-12-19T05:28:20.584Z,45.44
2023-12-19T05:29:20.586Z,45.51
2023-12-19T05:30:20.715Z,45.41
2023-12-19T05:31:20.875Z,45.50
2023-12-19T05:32:20.855Z,45.44
2023-12-19T05:33:20.948Z,45.40
2023-12-19T05:34:21.107Z,45.33
2023-12-19T05:35:21.095Z,45.35
2023-12-19T05:36:21.199Z,45.36
2023-12-19T05:37:21.284Z,45.37
2023-12-19T05:38:21.340Z,45.43
2023-12-19T05:39:21.508Z,45.35
2023-12-19T05:40:21.489Z,45.39
2023-12-19T05:41:21.542Z,45.42
2023-12-19T05:42:21.643Z,45.43
2023-12-19T05:43:21.684Z,45.36
2023-12-19T05:44:28.168Z,45.49
2023-12-19T05:45:23.476Z,45.46
2023-12-19T05:46:21.929Z,45.40
2023-12-19T05:47:22.005Z,45.47
2023-12-19T05:48:22.619Z,45.42
2023-12-19T05:49:22.282Z,45.38
2023-12-19T05:50:22.285Z,45.36
2023-12-19T05:51:22.400Z,45.45
2023-12-19T05:52:22.490Z,45.36
2023-12-19T05:53:22.548Z,45.28
2023-12-19T05:54:22.651Z,45.35
2023-12-19T05:55:22.711Z,45.38
2023-12-19T05:56:22.799Z,45.41
2023-12-19T05:57:22.941Z,45.36
2023-12-19T05:58:22.944Z,45.37
2023-12-19T05:59:23.010Z,45.35
2023-12-19T06:00:23.136Z,45.36
2023-12-19T06:01:23.265Z,45.33
2023-12-19T06:02:23.253Z,45.39
2023-12-19T06:03:23.506Z,45.38
2023-12-19T06:04:23.479Z,45.45
2023-12-19T06:05:23.535Z,45.45
2023-12-19T06:06:23.670Z,45.55
2023-12-19T06:07:23.710Z,45.51
2023-12-19T06:08:23.794Z,45.65
2023-12-19T06:09:23.911Z,45.61
2023-12-19T06:10:23.967Z,45.52
2023-12-19T06:11:24.037Z,45.49
2023-12-19T06:12:24.152Z,45.43
2023-12-19T06:13:24.227Z,45.60
2023-12-19T06:14:24.293Z,45.75
2023-12-19T06:15:24.407Z,45.80
2023-12-19T06:16:24.455Z,45.84
2023-12-19T06:17:24.517Z,45.83
2023-12-19T06:18:24.865Z,45.78
2023-12-19T06:19:24.683Z,45.82
2023-12-19T06:20:24.775Z,45.71
2023-12-19T06:21:24.856Z,45.53
2023-12-19T06:22:24.933Z,45.50
2023-12-19T06:23:25.031Z,45.41
2023-12-19T06:24:25.167Z,45.40
2023-12-19T06:25:25.272Z,45.28
2023-12-19T06:26:25.322Z,45.25
2023-12-19T06:27:25.426Z,45.25
2023-12-19T06:28:25.473Z,45.23
2023-12-19T06:29:25.516Z,45.19
2023-12-19T06:30:29.363Z,45.25
2023-12-19T06:31:25.780Z,45.36
2023-12-19T06:32:25.775Z,45.33
2023-12-19T06:33:26.058Z,45.51
2023-12-19T06:34:26.000Z,45.61
2023-12-19T06:35:25.992Z,45.71
2023-12-19T06:36:26.057Z,45.58
2023-12-19T06:37:26.173Z,45.56
2023-12-19T06:38:26.210Z,45.41
2023-12-19T06:39:26.304Z,45.41
2023-12-19T06:40:26.404Z,45.55
2023-12-19T06:41:26.474Z,45.48
2023-12-19T06:42:26.586Z,45.39
2023-12-19T06:43:26.631Z,45.45
2023-12-19T06:44:26.729Z,45.42
2023-12-19T06:45:26.835Z,45.51
2023-12-19T06:46:26.906Z,45.53
2023-12-19T06:47:27.020Z,45.63
2023-12-19T06:48:27.184Z,45.80
2023-12-19T06:49:27.279Z,45.82
2023-12-19T06:50:27.211Z,45.80
2023-12-19T06:51:27.353Z,45.83
2023-12-19T06:52:27.398Z,45.83
2023-12-19T06:53:27.475Z,45.83
2023-12-19T06:54:27.573Z,45.85
2023-12-19T06:55:27.629Z,45.72
2023-12-19T06:56:27.742Z,45.77
2023-12-19T06:57:27.803Z,45.68
2023-12-19T06:58:27.884Z,45.76
2023-12-19T06:59:28.013Z,45.77
2023-12-19T07:00:28.067Z,45.74
2023-12-19T07:01:28.222Z,45.74
2023-12-19T07:02:28.165Z,45.76
2023-12-19T07:03:28.312Z,45.80
2023-12-19T07:04:28.391Z,45.68
2023-12-19T07:05:28.453Z,45.60
2023-12-19T07:06:28.609Z,45.72
2023-12-19T07:07:28.606Z,45.75
2023-12-19T07:08:31.652Z,45.81
2023-12-19T07:09:28.844Z,45.77
2023-12-19T07:10:28.876Z,45.68
2023-12-19T07:11:28.948Z,45.68
2023-12-19T07:12:29.046Z,45.72
2023-12-19T07:13:29.087Z,45.75
2023-12-19T07:14:29.308Z,45.76
2023-12-19T07:15:29.347Z,45.69
2023-12-19T07:16:29.333Z,45.71
2023-12-19T07:17:29.439Z,45.79
2023-12-19T07:18:29.612Z,45.75
2023-12-19T07:19:29.671Z,45.84
2023-12-19T07:20:29.740Z,45.82
2023-12-19T07:21:29.764Z,45.80
2023-12-19T07:22:29.846Z,45.76
2023-12-19T07:23:29.899Z,45.68
2023-12-19T07:24:30.006Z,45.67
2023-12-19T07:25:30.071Z,45.62
2023-12-19T07:26:30.144Z,45.54
2023-12-19T07:27:30.257Z,45.61
2023-12-19T07:28:30.339Z,45.59
2023-12-19T07:29:30.379Z,45.66
2023-12-19T07:30:30.556Z,45.57
2023-12-19T07:31:30.709Z,45.66
2023-12-19T07:32:30.689Z,45.67
2023-12-19T07:33:30.821Z,45.56
2023-12-19T07:34:30.883Z,45.51
2023-12-19T07:35:33.516Z,45.64
2023-12-19T07:36:31.043Z,45.84
2023-12-19T07:37:31.082Z,45.90
2023-12-19T07:38:31.150Z,45.92
2023-12-19T07:39:31.368Z,45.87
2023-12-19T07:40:31.308Z,45.88
2023-12-19T07:41:31.387Z,45.65
2023-12-19T07:42:31.561Z,45.52
2023-12-19T07:43:31.544Z,45.77
2023-12-19T07:44:31.611Z,45.87
2023-12-19T07:45:31.784Z,45.91
2023-12-19T07:46:31.798Z,45.91
2023-12-19T07:47:31.875Z,45.94
2023-12-19T07:48:32.161Z,45.96
2023-12-19T07:49:32.121Z,45.98
2023-12-19T07:50:32.118Z,45.98
2023-12-19T07:51:32.223Z,45.97
2023-12-19T07:52:32.270Z,45.96
2023-12-19T07:53:32.348Z,45.95
2023-12-19T07:54:32.446Z,45.95
2023-12-19T07:55:32.505Z,45.83
2023-12-19T07:56:32.564Z,45.86
2023-12-19T07:57:32.694Z,45.76
2023-12-19T07:58:32.747Z,45.64
2023-12-19T07:59:32.858Z,45.58
2023-12-19T08:00:33.033Z,45.51
2023-12-19T08:01:33.214Z,45.46
2023-12-19T08:02:33.114Z,45.41
2023-12-19T08:03:33.338Z,45.43
2023-12-19T08:04:33.254Z,45.44
2023-12-19T08:05:33.385Z,45.44
2023-12-19T08:06:33.506Z,45.52
2023-12-19T08:07:33.516Z,45.63
2023-12-19T08:08:33.613Z,45.59
2023-12-19T08:09:33.726Z,45.52
2023-12-19T08:10:33.757Z,45.52
2023-12-19T08:11:33.833Z,45.50
2023-12-19T08:12:34.008Z,45.59
2023-12-19T08:13:33.981Z,45.56
2023-12-19T08:14:34.054Z,45.53
2023-12-19T08:15:34.186Z,45.45
2023-12-19T08:16:34.236Z,45.46
2023-12-19T08:17:34.356Z,45.46
2023-12-19T08:18:34.698Z,45.49
2023-12-19T08:19:34.686Z,45.46
2023-12-19T08:20:34.548Z,45.50
2023-12-19T08:21:34.652Z,45.46
2023-12-19T08:22:34.709Z,45.45
2023-12-19T08:23:34.785Z,45.51
2023-12-19T08:24:34.908Z,45.45
2023-12-19T08:25:34.970Z,45.41
2023-12-19T08:26:35.050Z,45.60
2023-12-19T08:27:35.143Z,45.51
2023-12-19T08:28:35.217Z,45.53
2023-12-19T08:29:35.318Z,45.46
2023-12-19T08:30:35.477Z,45.44
2023-12-19T08:31:35.518Z,45.49
2023-12-19T08:32:35.543Z,45.46
2023-12-19T08:33:35.607Z,45.54
2023-12-19T08:34:35.795Z,45.50
2023-12-19T08:35:35.809Z,45.53
2023-12-19T08:36:35.830Z,45.53
2023-12-19T08:37:35.925Z,45.54
2023-12-19T08:38:36.001Z,45.48
2023-12-19T08:39:36.112Z,45.65
2023-12-19T08:40:36.175Z,45.51
2023-12-19T08:41:36.241Z,45.44
2023-12-19T08:42:36.332Z,45.43
2023-12-19T08:43:36.406Z,45.54
2023-12-19T08:44:36.478Z,45.83
2023-12-19T08:45:36.566Z,45.86
2023-12-19T08:46:36.651Z,45.89
2023-12-19T08:47:36.719Z,45.91
2023-12-19T08:48:36.837Z,45.96
2023-12-19T08:49:36.915Z,45.98
2023-12-19T08:50:36.936Z,45.94
2023-12-19T08:51:37.134Z,45.96
2023-12-19T08:52:37.099Z,45.94
2023-12-19T08:53:37.207Z,45.96
2023-12-19T08:54:37.278Z,45.69
2023-12-19T08:55:37.316Z,45.72
2023-12-19T08:56:37.419Z,45.82
2023-12-19T08:57:37.517Z,45.74
2023-12-19T08:58:37.544Z,45.71
2023-12-19T08:59:37.625Z,45.56
2023-12-19T09:00:37.766Z,45.52
2023-12-19T09:01:37.893Z,45.41
2023-12-19T09:02:37.876Z,45.37
2023-12-19T09:03:38.097Z,45.37
2023-12-19T09:04:38.061Z,45.53
2023-12-19T09:05:38.139Z,45.44
2023-12-19T09:06:38.207Z,45.40
2023-12-19T09:07:38.279Z,45.39
2023-12-19T09:08:38.361Z,45.62
2023-12-19T09:09:38.553Z,45.88
2023-12-19T09:10:38.494Z,45.72
2023-12-19T09:11:38.566Z,45.57
2023-12-19T09:12:38.724Z,45.70
2023-12-19T09:13:38.714Z,45.87
2023-12-19T09:14:38.806Z,45.89
2023-12-19T09:15:38.951Z,45.89
2023-12-19T09:16:38.952Z,45.93
2023-12-19T09:17:39.107Z,45.92
2023-12-19T09:18:39.310Z,45.68
2023-12-19T09:19:39.364Z,45.44
2023-12-19T09:20:39.348Z,45.51
2023-12-19T09:21:39.406Z,45.43
2023-12-19T09:22:39.478Z,45.76
2023-12-19T09:23:42.006Z,45.76
2023-12-19T09:24:39.637Z,45.49
2023-12-19T09:25:39.690Z,45.54
2023-12-19T09:26:39.793Z,45.56
2023-12-19T09:27:39.856Z,45.81
2023-12-19T09:28:39.907Z,45.64
2023-12-19T09:29:40.032Z,45.78
2023-12-19T09:30:40.132Z,45.86
2023-12-19T09:31:40.330Z,45.91
2023-12-19T09:32:40.381Z,45.64
2023-12-19T09:33:40.374Z,45.51
2023-12-19T09:34:40.455Z,45.50
2023-12-19T09:35:40.470Z,45.60
2023-12-19T09:36:50.212Z,45.41
2023-12-19T09:37:40.699Z,45.43
2023-12-19T09:38:40.702Z,45.36
2023-12-19T09:39:40.962Z,45.36
2023-12-19T09:40:40.871Z,45.37
2023-12-19T09:41:40.939Z,45.38
2023-12-19T09:42:41.428Z,45.42
2023-12-19T09:43:41.104Z,45.42
2023-12-19T09:44:41.187Z,45.38
2023-12-19T09:45:41.283Z,45.31
2023-12-19T09:46:41.329Z,45.44
2023-12-19T09:47:41.432Z,45.46
2023-12-19T09:48:41.592Z,45.36
2023-12-19T09:49:41.673Z,45.39
2023-12-19T09:50:41.688Z,45.39
2023-12-19T09:51:41.831Z,45.39
2023-12-19T09:52:42.012Z,45.50
2023-12-19T09:53:42.054Z,45.40
2023-12-19T09:54:42.057Z,45.35
2023-12-19T09:55:42.056Z,45.39
2023-12-19T09:56:42.135Z,45.32
2023-12-19T09:57:42.345Z,45.40
2023-12-19T09:58:42.274Z,45.45
2023-12-19T09:59:45.668Z,45.73
2023-12-19T10:00:42.543Z,45.84
2023-12-19T10:01:42.589Z,45.84
2023-12-19T10:02:42.792Z,45.86
2023-12-19T10:03:42.738Z,45.85
2023-12-19T10:04:42.804Z,45.50
2023-12-19T10:05:42.870Z,45.37
2023-12-19T10:06:49.544Z,45.36
2023-12-19T10:07:43.089Z,45.45
2023-12-19T10:08:43.132Z,45.35
2023-12-19T10:09:43.154Z,45.36
2023-12-19T10:10:43.238Z,45.42
2023-12-19T10:11:43.295Z,45.38
2023-12-19T10:12:53.249Z,45.44
2023-12-19T10:13:43.454Z,45.55
2023-12-19T10:14:43.514Z,45.62
2023-12-19T10:15:43.615Z,45.53
2023-12-19T10:16:43.828Z,45.48
2023-12-19T10:17:43.756Z,45.54
2023-12-19T10:18:46.482Z,45.47
2023-12-19T10:19:43.945Z,45.63
2023-12-19T10:20:43.968Z,45.44
2023-12-19T10:21:44.083Z,45.50
2023-12-19T10:22:44.362Z,45.51
2023-12-19T10:23:44.208Z,45.66
2023-12-19T10:24:44.331Z,45.66
2023-12-19T10:25:46.533Z,45.51
2023-12-19T10:26:44.469Z,45.45
2023-12-19T10:27:44.647Z,45.37
2023-12-19T10:28:44.642Z,45.41
2023-12-19T10:29:44.716Z,45.44
2023-12-19T10:30:45.914Z,45.29
2023-12-19T10:31:44.946Z,45.41
2023-12-19T10:32:45.251Z,45.49
2023-12-19T10:33:45.187Z,45.61
2023-12-19T10:34:45.197Z,45.77
2023-12-19T10:35:45.191Z,45.81
2023-12-19T10:36:45.324Z,45.84
2023-12-19T10:37:45.777Z,45.82
2023-12-19T10:38:45.466Z,45.80
2023-12-19T10:39:45.604Z,45.69
2023-12-19T10:40:45.623Z,45.56
2023-12-19T10:41:45.686Z,45.57
2023-12-19T10:42:45.764Z,45.47
2023-12-19T10:43:47.437Z,45.48
2023-12-19T10:44:45.942Z,45.57
2023-12-19T10:45:46.292Z,45.48
2023-12-19T10:46:46.101Z,45.44
2023-12-19T10:47:46.589Z,45.35
2023-12-19T10:48:46.424Z,45.42
2023-12-19T10:49:48.599Z,45.39
2023-12-19T10:50:46.563Z,45.38
2023-12-19T10:51:46.506Z,45.48
2023-12-19T10:52:46.570Z,45.43
2023-12-19T10:53:46.650Z,45.53
2023-12-19T10:54:46.735Z,45.53
2023-12-19T10:55:46.797Z,45.56
2023-12-19T10:56:46.965Z,45.47
2023-12-19T10:57:47.259Z,45.47
2023-12-19T10:58:47.031Z,45.46
2023-12-19T10:59:47.105Z,45.49
2023-12-19T11:00:47.277Z,45.64
2023-12-19T11:01:47.487Z,45.63
2023-12-19T11:02:47.468Z,45.60
2023-12-19T11:03:47.661Z,45.63
2023-12-19T11:04:47.650Z,45.58
2023-12-19T11:05:47.760Z,45.52
2023-12-19T11:06:47.718Z,45.38
2023-12-19T11:07:47.798Z,45.45
2023-12-19T11:08:47.950Z,45.39
2023-12-19T11:09:47.992Z,45.51
2023-12-19T11:10:48.046Z,45.46
2023-12-19T11:11:48.116Z,45.58
2023-12-19T11:12:48.224Z,45.58
2023-12-19T11:13:48.350Z,45.53
2023-12-19T11:14:48.342Z,45.62
2023-12-19T11:15:48.458Z,45.57
2023-12-19T11:16:48.496Z,45.59
2023-12-19T11:17:49.085Z,45.61
2023-12-19T11:18:49.147Z,45.61
2023-12-19T11:19:48.926Z,45.71
2023-12-19T11:20:48.912Z,45.76
2023-12-19T11:21:48.921Z,45.77
2023-12-19T11:22:48.984Z,45.76
2023-12-19T11:23:49.085Z,45.63
2023-12-19T11:24:49.271Z,45.66
2023-12-19T11:25:52.015Z,45.48
2023-12-19T11:26:49.297Z,45.60
2023-12-19T11:27:49.396Z,45.48
2023-12-19T11:28:49.448Z,45.60
2023-12-19T11:29:49.519Z,45.65
2023-12-19T11:30:49.679Z,45.60
2023-12-19T11:31:55.778Z,45.63
2023-12-19T11:32:49.848Z,45.64
2023-12-19T11:33:49.954Z,45.65
2023-12-19T11:34:50.066Z,45.68
2023-12-19T11:35:50.056Z,45.61
2023-12-19T11:36:50.111Z,45.58
2023-12-19T11:37:50.201Z,45.53
2023-12-19T11:38:50.261Z,45.62
2023-12-19T11:39:50.366Z,45.56
2023-12-19T11:40:50.474Z,45.56
2023-12-19T11:41:50.502Z,45.53
2023-12-19T11:42:50.605Z,45.58
2023-12-19T11:43:50.647Z,45.70
2023-12-19T11:44:50.715Z,45.68
2023-12-19T11:45:50.856Z,45.66
2023-12-19T11:46:50.859Z,45.65
2023-12-19T11:47:51.420Z,45.55
2023-12-19T11:48:51.156Z,45.55
2023-12-19T11:49:51.149Z,45.60
2023-12-19T11:50:51.165Z,45.78
2023-12-19T11:51:51.344Z,45.84
2023-12-19T11:52:51.325Z,45.86
2023-12-19T11:53:51.426Z,45.80
2023-12-19T11:54:52.738Z,45.78
2023-12-19T11:55:51.576Z,45.71
2023-12-19T11:56:51.645Z,45.77
2023-12-19T11:57:57.308Z,45.71
2023-12-19T11:58:52.011Z,45.80
2023-12-19T11:59:51.973Z,45.77
2023-12-19T12:00:51.991Z,45.74
2023-12-19T12:01:52.098Z,45.78
2023-12-19T12:02:52.094Z,45.70
2023-12-19T12:03:52.207Z,45.79
2023-12-19T12:04:52.275Z,45.60
2023-12-19T12:05:52.367Z,45.60
2023-12-19T12:06:52.463Z,45.50
2023-12-19T12:07:52.530Z,45.48
2023-12-19T12:08:52.582Z,45.44
2023-12-19T12:09:52.682Z,45.49
2023-12-19T12:10:52.740Z,45.52
2023-12-19T12:11:52.937Z,45.59
2023-12-19T12:12:53.088Z,45.52
2023-12-19T12:13:52.951Z,45.60
2023-12-19T12:14:53.020Z,45.70
2023-12-19T12:15:53.101Z,45.58
2023-12-19T12:16:53.275Z,45.56
2023-12-19T12:17:53.319Z,45.52
2023-12-19T12:18:53.432Z,45.46
2023-12-19T12:19:53.511Z,45.67
2023-12-19T12:20:53.531Z,45.84
2023-12-19T12:21:53.628Z,45.78
2023-12-19T12:22:53.713Z,45.71
2023-12-19T12:23:53.787Z,45.59
2023-12-19T12:24:53.883Z,45.62
2023-12-19T12:25:53.922Z,45.66
2023-12-19T12:26:53.999Z,45.64
2023-12-19T12:27:54.078Z,45.63
2023-12-19T12:28:54.133Z,45.55
2023-12-19T12:29:54.210Z,45.58
2023-12-19T12:30:54.369Z,45.55
2023-12-19T12:31:54.428Z,45.57
2023-12-19T12:32:54.472Z,45.63
2023-12-19T12:33:54.586Z,45.79
2023-12-19T12:34:54.690Z,45.74
2023-12-19T12:35:54.698Z,45.72
2023-12-19T12:36:54.796Z,45.78
2023-12-19T12:37:54.866Z,45.83
2023-12-19T12:38:54.960Z,45.87
2023-12-19T12:39:55.063Z,45.90
2023-12-19T12:40:55.145Z,45.90
2023-12-19T12:41:55.205Z,45.94
2023-12-19T12:42:55.317Z,45.90
2023-12-19T12:43:55.343Z,45.89
2023-12-19T12:44:55.507Z,45.92
2023-12-19T12:45:55.533Z,45.92
2023-12-19T12:46:55.588Z,45.92
2023-12-19T12:47:55.713Z,45.85
2023-12-19T12:48:56.053Z,45.91
2023-12-19T12:49:55.977Z,45.84
2023-12-19T12:50:56.026Z,45.77
2023-12-19T12:51:55.992Z,45.90
2023-12-19T12:52:56.044Z,45.94
2023-12-19T12:53:56.133Z,45.96